sensor_id;sensor_type;location;lat;lon;timestamp;pressure;altitude;pressure_sealevel;temperature;humidity
71149;BME280;59072;42.144;25.200;2023-05-08T00:00:36;100346.41;;;13.56;49.96
71149;BME280;59072;42.144;25.200;2023-05-08T00:03:03;100360.16;;;13.48;49.72
71149;BME280;59072;42.144;25.200;2023-05-08T00:05:28;100350.38;;;13.53;49.76
71149;BME280;59072;42.144;25.200;2023-05-08T00:07:53;100349.94;;;13.68;49.04
71149;BME280;59072;42.144;25.200;2023-05-08T00:10:28;100347.47;;;13.78;49.00
71149;BME280;59072;42.144;25.200;2023-05-08T00:12:54;100335.84;;;13.61;48.57
71149;BME280;59072;42.144;25.200;2023-05-08T00:15:20;100332.56;;;13.71;48.70
71149;BME280;59072;42.144;25.200;2023-05-08T00:17:45;100350.38;;;13.77;48.25
71149;BME280;59072;42.144;25.200;2023-05-08T00:20:11;100352.25;;;13.64;49.03
71149;BME280;59072;42.144;25.200;2023-05-08T00:22:37;100340.50;;;13.65;48.73
71149;BME280;59072;42.144;25.200;2023-05-08T00:25:03;100347.00;;;13.58;48.69
71149;BME280;59072;42.144;25.200;2023-05-08T00:27:30;100352.63;;;13.80;49.04
71149;BME280;59072;42.144;25.200;2023-05-08T00:29:55;100347.94;;;13.63;49.52
71149;BME280;59072;42.144;25.200;2023-05-08T00:32:21;100352.00;;;13.54;51.29
71149;BME280;59072;42.144;25.200;2023-05-08T00:34:46;100353.16;;;13.35;52.20
71149;BME280;59072;42.144;25.200;2023-05-08T00:37:12;100345.59;;;13.43;52.52
71149;BME280;59072;42.144;25.200;2023-05-08T00:39:37;100350.56;;;13.28;53.97
71149;BME280;59072;42.144;25.200;2023-05-08T00:42:03;100350.88;;;13.20;54.62
71149;BME280;59072;42.144;25.200;2023-05-08T00:44:28;100350.03;;;13.19;55.83
71149;BME280;59072;42.144;25.200;2023-05-08T00:46:53;100348.59;;;13.05;56.72
71149;BME280;59072;42.144;25.200;2023-05-08T00:49:19;100356.53;;;13.00;57.37
71149;BME280;59072;42.144;25.200;2023-05-08T00:51:46;100348.53;;;12.81;58.21
71149;BME280;59072;42.144;25.200;2023-05-08T00:54:12;100354.06;;;12.68;58.97
71149;BME280;59072;42.144;25.200;2023-05-08T00:56:38;100357.31;;;12.70;59.19
71149;BME280;59072;42.144;25.200;2023-05-08T00:59:08;100334.63;;;12.42;59.50
71149;BME280;59072;42.144;25.200;2023-05-08T01:01:36;100353.78;;;12.58;59.03
71149;BME280;59072;42.144;25.200;2023-05-08T01:04:05;100356.75;;;12.50;60.02
71149;BME280;59072;42.144;25.200;2023-05-08T01:06:31;100359.13;;;12.39;60.72
71149;BME280;59072;42.144;25.200;2023-05-08T01:08:56;100354.88;;;12.50;60.78
71149;BME280;59072;42.144;25.200;2023-05-08T01:12:28;100364.19;;;12.29;61.86
71149;BME280;59072;42.144;25.200;2023-05-08T01:14:31;100367.97;;;12.40;60.84
71149;BME280;59072;42.144;25.200;2023-05-08T01:17:17;100368.63;;;12.17;62.40
71149;BME280;59072;42.144;25.200;2023-05-08T01:26:06;100366.44;;;12.14;62.69
71149;BME280;59072;42.144;25.200;2023-05-08T01:29:08;100372.41;;;12.09;63.24
71149;BME280;59072;42.144;25.200;2023-05-08T01:32:02;100380.00;;;12.12;62.41
71149;BME280;59072;42.144;25.200;2023-05-08T01:34:31;100380.09;;;12.05;62.27
71149;BME280;59072;42.144;25.200;2023-05-08T01:37:04;100371.50;;;11.97;62.64
71149;BME280;59072;42.144;25.200;2023-05-08T01:40:01;100383.19;;;12.02;62.74
71149;BME280;59072;42.144;25.200;2023-05-08T01:42:47;100391.97;;;12.10;62.64
71149;BME280;59072;42.144;25.200;2023-05-08T01:45:19;100382.19;;;12.22;60.98
71149;BME280;59072;42.144;25.200;2023-05-08T01:47:50;100389.94;;;12.05;61.93
71149;BME280;59072;42.144;25.200;2023-05-08T01:50:20;100394.03;;;12.08;61.78
71149;BME280;59072;42.144;25.200;2023-05-08T01:52:57;100366.09;;;11.78;62.79
71149;BME280;59072;42.144;25.200;2023-05-08T01:55:26;100397.63;;;11.95;62.66
71149;BME280;59072;42.144;25.200;2023-05-08T01:57:57;100370.00;;;12.08;61.83
71149;BME280;59072;42.144;25.200;2023-05-08T02:00:22;100399.69;;;12.18;61.91
71149;BME280;59072;42.144;25.200;2023-05-08T02:02:51;100387.34;;;11.98;62.67
71149;BME280;59072;42.144;25.200;2023-05-08T02:05:20;100373.75;;;12.00;62.38
71149;BME280;59072;42.144;25.200;2023-05-08T02:07:46;100384.84;;;12.03;63.24
71149;BME280;59072;42.144;25.200;2023-05-08T02:10:14;100387.34;;;11.98;63.67
71149;BME280;59072;42.144;25.200;2023-05-08T02:12:42;100370.31;;;11.68;64.82
71149;BME280;59072;42.144;25.200;2023-05-08T02:15:08;100387.34;;;11.66;64.36
71149;BME280;59072;42.144;25.200;2023-05-08T02:17:38;100366.72;;;11.55;65.33
71149;BME280;59072;42.144;25.200;2023-05-08T02:20:05;100392.09;;;11.64;64.78
71149;BME280;59072;42.144;25.200;2023-05-08T02:22:32;100377.97;;;11.89;63.21
71149;BME280;59072;42.144;25.200;2023-05-08T02:24:59;100379.41;;;11.85;63.57
71149;BME280;59072;42.144;25.200;2023-05-08T02:27:27;100387.97;;;11.69;64.90
71149;BME280;59072;42.144;25.200;2023-05-08T02:29:54;100378.81;;;11.58;65.11
71149;BME280;59072;42.144;25.200;2023-05-08T02:32:23;100380.03;;;11.87;64.59
71149;BME280;59072;42.144;25.200;2023-05-08T02:34:49;100388.09;;;12.05;62.73
71149;BME280;59072;42.144;25.200;2023-05-08T02:37:18;100367.88;;;11.91;63.46
71149;BME280;59072;42.144;25.200;2023-05-08T02:39:46;100358.81;;;11.92;62.85
71149;BME280;59072;42.144;25.200;2023-05-08T02:42:12;100366.56;;;12.19;62.13
71149;BME280;59072;42.144;25.200;2023-05-08T02:44:38;100368.56;;;12.23;62.84
71149;BME280;59072;42.144;25.200;2023-05-08T02:47:14;100377.56;;;12.29;62.91
71149;BME280;59072;42.144;25.200;2023-05-08T02:50:13;100379.91;;;12.00;63.45
71149;BME280;59072;42.144;25.200;2023-05-08T02:52:53;100373.44;;;11.90;63.88
71149;BME280;59072;42.144;25.200;2023-05-08T03:00:36;100382.91;;;11.85;68.13
71149;BME280;59072;42.144;25.200;2023-05-08T03:03:16;100382.94;;;11.79;67.54
71149;BME280;59072;42.144;25.200;2023-05-08T03:05:55;100390.38;;;12.02;66.98
71149;BME280;59072;42.144;25.200;2023-05-08T03:08:30;100396.81;;;11.94;67.30
71149;BME280;59072;42.144;25.200;2023-05-08T03:10:59;100371.41;;;11.85;67.52
71149;BME280;59072;42.144;25.200;2023-05-08T03:13:28;100391.13;;;11.84;66.69
71149;BME280;59072;42.144;25.200;2023-05-08T03:16:00;100388.66;;;11.89;66.94
71149;BME280;59072;42.144;25.200;2023-05-08T03:18:32;100384.53;;;11.86;66.78
71149;BME280;59072;42.144;25.200;2023-05-08T03:20:59;100393.63;;;11.79;67.51
71149;BME280;59072;42.144;25.200;2023-05-08T03:23:27;100384.75;;;11.60;68.02
71149;BME280;59072;42.144;25.200;2023-05-08T03:25:54;100402.91;;;11.51;69.02
71149;BME280;59072;42.144;25.200;2023-05-08T03:28:21;100407.19;;;11.52;68.68
71149;BME280;59072;42.144;25.200;2023-05-08T03:30:49;100389.00;;;11.42;69.43
71149;BME280;59072;42.144;25.200;2023-05-08T03:33:15;100407.25;;;11.71;69.05
71149;BME280;59072;42.144;25.200;2023-05-08T03:35:42;100399.63;;;11.49;69.20
71149;BME280;59072;42.144;25.200;2023-05-08T03:38:09;100392.69;;;11.41;70.13
71149;BME280;59072;42.144;25.200;2023-05-08T03:40:35;100384.63;;;11.48;69.17
71149;BME280;59072;42.144;25.200;2023-05-08T03:43:05;100392.75;;;11.35;70.11
71149;BME280;59072;42.144;25.200;2023-05-08T03:45:34;100402.88;;;11.83;67.54
71149;BME280;59072;42.144;25.200;2023-05-08T03:48:02;100403.50;;;11.78;67.62
71149;BME280;59072;42.144;25.200;2023-05-08T03:50:28;100405.78;;;12.25;65.89
71149;BME280;59072;42.144;25.200;2023-05-08T03:52:54;100409.13;;;12.20;66.12
71149;BME280;59072;42.144;25.200;2023-05-08T03:55:20;100412.31;;;12.11;67.00
71149;BME280;59072;42.144;25.200;2023-05-08T04:01:00;100418.81;;;11.64;70.20
71149;BME280;59072;42.144;25.200;2023-05-08T04:06:50;100428.16;;;11.80;69.22
71149;BME280;59072;42.144;25.200;2023-05-08T04:09:37;100422.22;;;11.78;68.99
71149;BME280;59072;42.144;25.200;2023-05-08T04:14:53;100412.44;;;11.40;69.60
71149;BME280;59072;42.144;25.200;2023-05-08T04:17:49;100442.25;;;11.94;69.13
71149;BME280;59072;42.144;25.200;2023-05-08T04:20:18;100433.56;;;11.74;69.72
71149;BME280;59072;42.144;25.200;2023-05-08T04:22:46;100432.25;;;11.83;68.59
71149;BME280;59072;42.144;25.200;2023-05-08T04:25:15;100434.31;;;11.81;69.59
71149;BME280;59072;42.144;25.200;2023-05-08T04:27:42;100439.03;;;12.11;66.25
71149;BME280;59072;42.144;25.200;2023-05-08T04:30:09;100432.81;;;12.17;65.78
71149;BME280;59072;42.144;25.200;2023-05-08T04:32:35;100437.00;;;12.50;64.68
71149;BME280;59072;42.144;25.200;2023-05-08T04:35:02;100435.81;;;12.45;64.90
71149;BME280;59072;42.144;25.200;2023-05-08T04:37:28;100424.75;;;11.98;66.40
71149;BME280;59072;42.144;25.200;2023-05-08T04:39:55;100419.84;;;11.95;66.40
71149;BME280;59072;42.144;25.200;2023-05-08T04:42:20;100425.34;;;12.00;65.77
71149;BME280;59072;42.144;25.200;2023-05-08T04:44:46;100426.78;;;12.21;64.11
71149;BME280;59072;42.144;25.200;2023-05-08T04:47:12;100422.94;;;12.54;62.87
71149;BME280;59072;42.144;25.200;2023-05-08T04:49:38;100428.69;;;12.58;63.37
71149;BME280;59072;42.144;25.200;2023-05-08T04:52:03;100420.78;;;13.00;62.47
71149;BME280;59072;42.144;25.200;2023-05-08T04:54:29;100435.47;;;13.09;61.38
71149;BME280;59072;42.144;25.200;2023-05-08T04:56:54;100437.00;;;13.35;60.25
71149;BME280;59072;42.144;25.200;2023-05-08T04:59:19;100440.16;;;13.44;60.29
71149;BME280;59072;42.144;25.200;2023-05-08T05:01:46;100447.47;;;13.67;59.83
71149;BME280;59072;42.144;25.200;2023-05-08T05:04:11;100421.72;;;13.78;58.62
71149;BME280;59072;42.144;25.200;2023-05-08T05:06:37;100434.50;;;13.64;60.40
71149;BME280;59072;42.144;25.200;2023-05-08T05:09:02;100444.22;;;13.89;60.91
71149;BME280;59072;42.144;25.200;2023-05-08T05:11:29;100435.94;;;13.78;59.16
71149;BME280;59072;42.144;25.200;2023-05-08T05:13:54;100435.66;;;13.56;59.64
71149;BME280;59072;42.144;25.200;2023-05-08T05:16:20;100438.25;;;13.75;59.64
71149;BME280;59072;42.144;25.200;2023-05-08T05:18:45;100430.13;;;13.93;59.56
71149;BME280;59072;42.144;25.200;2023-05-08T05:21:11;100434.44;;;14.18;60.21
71149;BME280;59072;42.144;25.200;2023-05-08T05:23:37;100433.84;;;14.16;58.65
71149;BME280;59072;42.144;25.200;2023-05-08T05:26:03;100436.88;;;14.55;57.71
71149;BME280;59072;42.144;25.200;2023-05-08T05:28:28;100434.91;;;14.62;57.43
71149;BME280;59072;42.144;25.200;2023-05-08T05:30:53;100427.78;;;14.68;58.22
71149;BME280;59072;42.144;25.200;2023-05-08T05:33:19;100427.69;;;14.51;56.24
71149;BME280;59072;42.144;25.200;2023-05-08T05:35:44;100423.34;;;14.50;55.70
71149;BME280;59072;42.144;25.200;2023-05-08T05:38:10;100425.44;;;14.71;56.16
71149;BME280;59072;42.144;25.200;2023-05-08T05:40:35;100429.19;;;14.99;54.75
71149;BME280;59072;42.144;25.200;2023-05-08T05:43:01;100427.28;;;14.82;55.21
71149;BME280;59072;42.144;25.200;2023-05-08T05:45:26;100415.19;;;14.97;54.04
71149;BME280;59072;42.144;25.200;2023-05-08T05:47:51;100425.88;;;14.80;55.14
71149;BME280;59072;42.144;25.200;2023-05-08T05:50:18;100411.94;;;14.95;54.14
71149;BME280;59072;42.144;25.200;2023-05-08T05:52:44;100410.22;;;14.89;54.15
71149;BME280;59072;42.144;25.200;2023-05-08T05:55:10;100412.25;;;15.10;54.66
71149;BME280;59072;42.144;25.200;2023-05-08T05:57:36;100417.47;;;15.17;51.88
71149;BME280;59072;42.144;25.200;2023-05-08T06:00:02;100423.03;;;15.44;50.55
71149;BME280;59072;42.144;25.200;2023-05-08T06:02:28;100420.66;;;15.31;50.34
71149;BME280;59072;42.144;25.200;2023-05-08T06:04:53;100406.75;;;15.34;48.94
71149;BME280;59072;42.144;25.200;2023-05-08T06:07:19;100413.59;;;15.58;49.27
71149;BME280;59072;42.144;25.200;2023-05-08T06:09:45;100419.50;;;15.89;48.07
71149;BME280;59072;42.144;25.200;2023-05-08T06:12:11;100411.28;;;15.96;50.64
71149;BME280;59072;42.144;25.200;2023-05-08T06:14:36;100404.50;;;15.93;48.71
71149;BME280;59072;42.144;25.200;2023-05-08T06:17:05;100406.53;;;16.03;48.79
71149;BME280;59072;42.144;25.200;2023-05-08T06:19:30;100403.75;;;16.15;48.32
71149;BME280;59072;42.144;25.200;2023-05-08T06:21:55;100395.78;;;16.42;48.20
71149;BME280;59072;42.144;25.200;2023-05-08T06:24:21;100392.50;;;16.40;47.45
71149;BME280;59072;42.144;25.200;2023-05-08T06:26:46;100396.16;;;16.12;47.84
71149;BME280;59072;42.144;25.200;2023-05-08T06:29:12;100392.38;;;16.30;47.75
71149;BME280;59072;42.144;25.200;2023-05-08T06:31:37;100396.56;;;16.42;46.76
71149;BME280;59072;42.144;25.200;2023-05-08T06:34:02;100386.75;;;16.31;48.40
71149;BME280;59072;42.144;25.200;2023-05-08T06:36:28;100398.09;;;16.33;47.97
71149;BME280;59072;42.144;25.200;2023-05-08T06:38:54;100396.09;;;16.45;48.72
71149;BME280;59072;42.144;25.200;2023-05-08T06:41:19;100396.63;;;16.86;47.74
71149;BME280;59072;42.144;25.200;2023-05-08T06:43:46;100394.44;;;17.11;48.24
71149;BME280;59072;42.144;25.200;2023-05-08T06:46:11;100395.19;;;17.06;46.28
71149;BME280;59072;42.144;25.200;2023-05-08T06:48:37;100382.59;;;17.39;48.50
71149;BME280;59072;42.144;25.200;2023-05-08T06:51:02;100379.16;;;17.48;46.81
71149;BME280;59072;42.144;25.200;2023-05-08T06:53:28;100387.75;;;17.78;45.28
71149;BME280;59072;42.144;25.200;2023-05-08T06:55:54;100384.50;;;17.76;45.25
71149;BME280;59072;42.144;25.200;2023-05-08T06:58:21;100387.97;;;17.39;46.28
71149;BME280;59072;42.144;25.200;2023-05-08T07:00:47;100378.75;;;17.67;44.56
71149;BME280;59072;42.144;25.200;2023-05-08T07:03:12;100386.03;;;17.99;43.89
71149;BME280;59072;42.144;25.200;2023-05-08T07:05:38;100380.94;;;18.02;45.49
71149;BME280;59072;42.144;25.200;2023-05-08T07:08:03;100381.06;;;18.23;44.27
71149;BME280;59072;42.144;25.200;2023-05-08T07:10:29;100377.66;;;18.43;46.30
71149;BME280;59072;42.144;25.200;2023-05-08T07:12:54;100369.00;;;18.41;43.67
71149;BME280;59072;42.144;25.200;2023-05-08T07:15:20;100378.91;;;18.25;43.00
71149;BME280;59072;42.144;25.200;2023-05-08T07:17:48;100369.72;;;18.26;42.92
71149;BME280;59072;42.144;25.200;2023-05-08T07:20:13;100359.25;;;18.40;42.02
71149;BME280;59072;42.144;25.200;2023-05-08T07:22:39;100366.63;;;18.60;43.80
71149;BME280;59072;42.144;25.200;2023-05-08T07:25:05;100363.66;;;18.66;45.11
71149;BME280;59072;42.144;25.200;2023-05-08T07:27:30;100362.28;;;18.59;43.98
71149;BME280;59072;42.144;25.200;2023-05-08T07:29:56;100352.94;;;18.87;44.01
71149;BME280;59072;42.144;25.200;2023-05-08T07:32:28;100356.91;;;18.69;44.42
71149;BME280;59072;42.144;25.200;2023-05-08T07:34:55;100349.97;;;18.94;45.35
71149;BME280;59072;42.144;25.200;2023-05-08T07:37:21;100357.84;;;19.05;43.90
71149;BME280;59072;42.144;25.200;2023-05-08T07:39:47;100352.69;;;18.94;44.66
71149;BME280;59072;42.144;25.200;2023-05-08T07:42:12;100337.47;;;18.67;44.52
71149;BME280;59072;42.144;25.200;2023-05-08T07:44:40;100355.44;;;19.19;44.92
71149;BME280;59072;42.144;25.200;2023-05-08T07:47:05;100352.72;;;19.24;43.77
71149;BME280;59072;42.144;25.200;2023-05-08T07:49:31;100341.66;;;19.26;43.81
71149;BME280;59072;42.144;25.200;2023-05-08T07:51:59;100349.78;;;19.41;46.48
71149;BME280;59072;42.144;25.200;2023-05-08T07:54:27;100344.63;;;19.50;45.55
71149;BME280;59072;42.144;25.200;2023-05-08T07:56:53;100343.53;;;19.25;45.24
71149;BME280;59072;42.144;25.200;2023-05-08T07:59:18;100359.25;;;19.80;42.79
71149;BME280;59072;42.144;25.200;2023-05-08T08:01:46;100357.84;;;19.87;41.98
71149;BME280;59072;42.144;25.200;2023-05-08T08:04:14;100351.63;;;20.02;41.71
71149;BME280;59072;42.144;25.200;2023-05-08T08:06:42;100333.13;;;20.25;42.43
71149;BME280;59072;42.144;25.200;2023-05-08T08:09:10;100342.19;;;20.55;41.58
71149;BME280;59072;42.144;25.200;2023-05-08T08:11:41;100332.47;;;20.48;40.30
71149;BME280;59072;42.144;25.200;2023-05-08T08:14:06;100340.72;;;20.23;42.01
71149;BME280;59072;42.144;25.200;2023-05-08T08:16:38;100337.94;;;20.38;40.40
71149;BME280;59072;42.144;25.200;2023-05-08T08:19:06;100331.47;;;20.34;41.54
71149;BME280;59072;42.144;25.200;2023-05-08T08:21:31;100324.00;;;20.71;41.87
71149;BME280;59072;42.144;25.200;2023-05-08T08:23:59;100327.19;;;20.83;40.26
71149;BME280;59072;42.144;25.200;2023-05-08T08:26:25;100317.13;;;20.89;43.13
71149;BME280;59072;42.144;25.200;2023-05-08T08:28:51;100322.25;;;21.24;39.13
71149;BME280;59072;42.144;25.200;2023-05-08T08:31:16;100330.53;;;21.09;40.54
71149;BME280;59072;42.144;25.200;2023-05-08T08:33:43;100314.81;;;21.45;41.05
71149;BME280;59072;42.144;25.200;2023-05-08T08:39:34;100314.31;;;21.92;39.26
71149;BME280;59072;42.144;25.200;2023-05-08T08:45:21;100305.75;;;21.55;40.44
71149;BME280;59072;42.144;25.200;2023-05-08T08:47:47;100305.91;;;21.93;39.27
71149;BME280;59072;42.144;25.200;2023-05-08T08:50:13;100299.56;;;22.03;38.71
71149;BME280;59072;42.144;25.200;2023-05-08T08:52:55;100297.16;;;22.44;37.46
71149;BME280;59072;42.144;25.200;2023-05-08T08:55:28;100305.97;;;22.55;37.82
71149;BME280;59072;42.144;25.200;2023-05-08T08:58:13;100295.31;;;22.78;38.41
71149;BME280;59072;42.144;25.200;2023-05-08T09:01:16;100301.41;;;23.08;36.65
71149;BME280;59072;42.144;25.200;2023-05-08T09:49:58;100223.28;;;24.10;36.25
71149;BME280;59072;42.144;25.200;2023-05-08T09:52:27;100228.41;;;24.62;35.60
71149;BME280;59072;42.144;25.200;2023-05-08T09:57:36;100218.03;;;24.27;38.38
71149;BME280;59072;42.144;25.200;2023-05-08T10:00:09;100222.41;;;24.51;35.81
71149;BME280;59072;42.144;25.200;2023-05-08T10:02:41;100209.53;;;24.65;35.61
71149;BME280;59072;42.144;25.200;2023-05-08T10:05:30;100214.03;;;24.93;35.51
71149;BME280;59072;42.144;25.200;2023-05-08T10:10:45;100205.09;;;25.23;34.28
71149;BME280;59072;42.144;25.200;2023-05-08T10:13:11;100195.50;;;25.75;33.75
71149;BME280;59072;42.144;25.200;2023-05-08T10:15:37;100201.09;;;25.70;35.08
71149;BME280;59072;42.144;25.200;2023-05-08T10:18:05;100203.38;;;25.28;37.13
71149;BME280;59072;42.144;25.200;2023-05-08T10:20:32;100193.38;;;25.23;36.60
71149;BME280;59072;42.144;25.200;2023-05-08T10:22:58;100186.53;;;25.34;36.25
71149;BME280;59072;42.144;25.200;2023-05-08T10:25:24;100189.00;;;25.53;36.52
71149;BME280;59072;42.144;25.200;2023-05-08T10:30:25;100186.03;;;25.81;34.63
71149;BME280;59072;42.144;25.200;2023-05-08T10:32:52;100187.06;;;26.46;35.30
71149;BME280;59072;42.144;25.200;2023-05-08T10:35:22;100179.03;;;26.32;34.07
71149;BME280;59072;42.144;25.200;2023-05-08T10:37:48;100183.03;;;26.52;35.38
71149;BME280;59072;42.144;25.200;2023-05-08T10:40:14;100181.91;;;26.27;34.94
71149;BME280;59072;42.144;25.200;2023-05-08T10:42:40;100175.16;;;26.16;34.83
71149;BME280;59072;42.144;25.200;2023-05-08T10:45:07;100174.50;;;26.01;34.30
71149;BME280;59072;42.144;25.200;2023-05-08T10:53:21;100166.78;;;26.73;35.14
71149;BME280;59072;42.144;25.200;2023-05-08T10:55:51;100153.94;;;26.30;35.36
71149;BME280;59072;42.144;25.200;2023-05-08T11:03:16;100147.63;;;26.73;34.76
71149;BME280;59072;42.144;25.200;2023-05-08T11:05:45;100155.97;;;26.85;33.05
71149;BME280;59072;42.144;25.200;2023-05-08T11:08:28;100164.31;;;27.75;31.47
71149;BME280;59072;42.144;25.200;2023-05-08T11:19:29;100142.94;;;27.30;32.94
71149;BME280;59072;42.144;25.200;2023-05-08T11:22:13;100130.81;;;27.39;33.19
71149;BME280;59072;42.144;25.200;2023-05-08T11:25:06;100125.13;;;27.74;32.16
71149;BME280;59072;42.144;25.200;2023-05-08T11:30:34;100131.34;;;28.47;31.03
71149;BME280;59072;42.144;25.200;2023-05-08T11:35:57;100132.59;;;28.16;31.94
71149;BME280;59072;42.144;25.200;2023-05-08T11:38:24;100135.13;;;28.21;32.28
71149;BME280;59072;42.144;25.200;2023-05-08T11:46:04;100121.50;;;28.45;30.54
71149;BME280;59072;42.144;25.200;2023-05-08T11:48:33;100119.97;;;28.36;31.40
71149;BME280;59072;42.144;25.200;2023-05-08T11:51:00;100116.38;;;28.23;31.93
71149;BME280;59072;42.144;25.200;2023-05-08T11:53:26;100108.91;;;28.11;32.90
71149;BME280;59072;42.144;25.200;2023-05-08T11:55:56;100103.88;;;28.68;31.42
71149;BME280;59072;42.144;25.200;2023-05-08T11:58:22;100104.22;;;28.78;31.75
71149;BME280;59072;42.144;25.200;2023-05-08T12:00:48;100101.03;;;29.01;31.65
71149;BME280;59072;42.144;25.200;2023-05-08T12:03:18;100093.88;;;29.33;30.30
71149;BME280;59072;42.144;25.200;2023-05-08T12:05:45;100082.97;;;29.74;33.11
71149;BME280;59072;42.144;25.200;2023-05-08T12:08:18;100086.56;;;29.13;31.15
71149;BME280;59072;42.144;25.200;2023-05-08T12:10:54;100084.53;;;28.64;30.64
71149;BME280;59072;42.144;25.200;2023-05-08T12:14:26;100085.66;;;28.51;30.76
71149;BME280;59072;42.144;25.200;2023-05-08T13:16:48;100049.03;;;26.61;34.28
71149;BME280;59072;42.144;25.200;2023-05-08T13:19:13;100044.03;;;26.63;34.11
71149;BME280;59072;42.144;25.200;2023-05-08T13:21:40;100041.91;;;26.77;34.35
71149;BME280;59072;42.144;25.200;2023-05-08T13:24:06;100049.63;;;26.75;34.86
71149;BME280;59072;42.144;25.200;2023-05-08T13:26:31;100048.66;;;27.10;34.37
71149;BME280;59072;42.144;25.200;2023-05-08T13:28:57;100045.13;;;27.09;33.23
71149;BME280;59072;42.144;25.200;2023-05-08T13:31:23;100038.72;;;27.35;32.82
71149;BME280;59072;42.144;25.200;2023-05-08T13:33:48;100038.31;;;27.45;32.15
71149;BME280;59072;42.144;25.200;2023-05-08T13:36:14;100032.38;;;27.64;32.26
71149;BME280;59072;42.144;25.200;2023-05-08T13:38:39;100035.25;;;28.55;31.68
71149;BME280;59072;42.144;25.200;2023-05-08T13:41:04;100039.75;;;28.97;31.09
71149;BME280;59072;42.144;25.200;2023-05-08T13:43:30;100038.47;;;30.12;31.30
71149;BME280;59072;42.144;25.200;2023-05-08T13:45:56;100042.97;;;30.33;30.07
71149;BME280;59072;42.144;25.200;2023-05-08T13:48:21;100022.25;;;29.67;29.75
71149;BME280;59072;42.144;25.200;2023-05-08T13:50:46;100027.19;;;30.77;28.46
71149;BME280;59072;42.144;25.200;2023-05-08T13:53:12;100030.13;;;31.36;28.11
71149;BME280;59072;42.144;25.200;2023-05-08T13:55:37;100039.41;;;31.12;26.69
71149;BME280;59072;42.144;25.200;2023-05-08T13:58:03;100024.34;;;30.14;28.91
71149;BME280;59072;42.144;25.200;2023-05-08T14:00:28;100016.81;;;30.11;28.39
71149;BME280;59072;42.144;25.200;2023-05-08T14:02:54;100028.06;;;30.50;28.56
71149;BME280;59072;42.144;25.200;2023-05-08T14:05:19;100023.53;;;31.05;28.36
71149;BME280;59072;42.144;25.200;2023-05-08T14:07:45;100018.00;;;31.40;26.99
71149;BME280;59072;42.144;25.200;2023-05-08T14:10:10;99997.88;;;31.95;26.06
71149;BME280;59072;42.144;25.200;2023-05-08T14:12:36;99993.56;;;31.55;26.11
71149;BME280;59072;42.144;25.200;2023-05-08T14:15:03;100003.94;;;30.91;28.01
71149;BME280;59072;42.144;25.200;2023-05-08T14:17:28;100012.91;;;31.23;26.80
71149;BME280;59072;42.144;25.200;2023-05-08T14:19:54;100013.94;;;31.70;26.73
71149;BME280;59072;42.144;25.200;2023-05-08T14:22:20;100012.41;;;31.92;26.53
71149;BME280;59072;42.144;25.200;2023-05-08T14:24:45;100006.09;;;31.72;27.02
71149;BME280;59072;42.144;25.200;2023-05-08T14:27:10;100009.81;;;32.22;25.68
71149;BME280;59072;42.144;25.200;2023-05-08T14:29:36;100003.81;;;31.03;28.40
71149;BME280;59072;42.144;25.200;2023-05-08T14:32:01;100005.28;;;30.65;29.38
71149;BME280;59072;42.144;25.200;2023-05-08T14:34:27;100008.72;;;30.30;29.77
71149;BME280;59072;42.144;25.200;2023-05-08T14:36:52;100015.97;;;30.22;29.92
71149;BME280;59072;42.144;25.200;2023-05-08T14:39:18;100020.91;;;29.48;31.16
71149;BME280;59072;42.144;25.200;2023-05-08T14:41:44;100022.81;;;28.82;32.58
71149;BME280;59072;42.144;25.200;2023-05-08T14:44:09;100026.94;;;28.89;33.54
71149;BME280;59072;42.144;25.200;2023-05-08T14:46:34;100020.19;;;27.32;36.70
71149;BME280;59072;42.144;25.200;2023-05-08T14:49:00;100025.88;;;27.27;37.69
71149;BME280;59072;42.144;25.200;2023-05-08T14:51:25;100026.47;;;26.73;39.13
71149;BME280;59072;42.144;25.200;2023-05-08T14:53:52;100003.03;;;27.22;38.19
71149;BME280;59072;42.144;25.200;2023-05-08T14:56:17;100008.91;;;27.54;37.70
71149;BME280;59072;42.144;25.200;2023-05-08T14:58:43;100028.31;;;27.28;36.88
71149;BME280;59072;42.144;25.200;2023-05-08T15:01:08;100019.38;;;26.07;39.83
71149;BME280;59072;42.144;25.200;2023-05-08T15:03:34;100031.44;;;25.62;41.28
71149;BME280;59072;42.144;25.200;2023-05-08T15:05:59;100027.59;;;25.46;41.55
71149;BME280;59072;42.144;25.200;2023-05-08T15:08:25;100020.00;;;25.43;41.71
71149;BME280;59072;42.144;25.200;2023-05-08T15:10:50;100023.03;;;26.29;40.62
71149;BME280;59072;42.144;25.200;2023-05-08T15:13:16;100017.88;;;27.63;37.90
71149;BME280;59072;42.144;25.200;2023-05-08T15:15:41;100019.88;;;27.96;37.35
71149;BME280;59072;42.144;25.200;2023-05-08T15:18:07;100023.19;;;27.90;36.51
71149;BME280;59072;42.144;25.200;2023-05-08T15:20:32;100036.56;;;26.25;39.17
71149;BME280;59072;42.144;25.200;2023-05-08T15:22:58;100025.75;;;25.15;41.54
71149;BME280;59072;42.144;25.200;2023-05-08T15:25:23;100029.16;;;24.50;42.99
71149;BME280;59072;42.144;25.200;2023-05-08T15:27:50;100025.91;;;24.16;45.27
71149;BME280;59072;42.144;25.200;2023-05-08T15:30:20;100024.06;;;23.66;46.71
71149;BME280;59072;42.144;25.200;2023-05-08T15:32:46;100022.72;;;23.78;47.16
71149;BME280;59072;42.144;25.200;2023-05-08T15:35:12;100023.91;;;23.49;46.88
71149;BME280;59072;42.144;25.200;2023-05-08T15:37:37;100024.56;;;23.32;47.38